sensor_id;sensor_type;location;lat;lon;timestamp;temperature;humidity
21712;DHT22;11017;53.552;9.910;2023-03-23T00:01:22;12.00;99.90
21712;DHT22;11017;53.552;9.910;2023-03-23T00:04:09;11.70;99.90
21712;DHT22;11017;53.552;9.910;2023-03-23T00:07:16;11.80;99.90
21712;DHT22;11017;53.552;9.910;2023-03-23T00:10:21;11.70;99.90
21712;DHT22;11017;53.552;9.910;2023-03-23T00:13:21;11.60;99.90
21712;DHT22;11017;53.552;9.910;2023-03-23T00:19:58;11.70;99.90
21712;DHT22;11017;53.552;9.910;2023-03-23T00:23:04;11.60;99.90
21712;DHT22;11017;53.552;9.910;2023-03-23T00:25:38;11.50;99.90
21712;DHT22;11017;53.552;9.910;2023-03-23T00:28:49;11.40;99.90
21712;DHT22;11017;53.552;9.910;2023-03-23T00:31:53;11.40;99.90
21712;DHT22;11017;53.552;9.910;2023-03-23T00:38:04;11.60;99.90
21712;DHT22;11017;53.552;9.910;2023-03-23T00:44:34;11.50;99.90
21712;DHT22;11017;53.552;9.910;2023-03-23T00:47:43;11.50;99.90
21712;DHT22;11017;53.552;9.910;2023-03-23T00:50:54;11.40;99.90
21712;DHT22;11017;53.552;9.910;2023-03-23T00:54:02;11.40;99.90
21712;DHT22;11017;53.552;9.910;2023-03-23T00:56:50;11.30;99.90
21712;DHT22;11017;53.552;9.910;2023-03-23T00:59:52;11.30;99.90
21712;DHT22;11017;53.552;9.910;2023-03-23T01:05:50;11.50;99.90
21712;DHT22;11017;53.552;9.910;2023-03-23T01:12:13;11.60;99.90
21712;DHT22;11017;53.552;9.910;2023-03-23T01:15:14;11.50;99.90
21712;DHT22;11017;53.552;9.910;2023-03-23T01:18:17;11.50;99.90
21712;DHT22;11017;53.552;9.910;2023-03-23T01:21:26;11.50;99.90
21712;DHT22;11017;53.552;9.910;2023-03-23T01:24:18;11.40;99.90
21712;DHT22;11017;53.552;9.910;2023-03-23T01:27:31;11.40;99.90
21712;DHT22;11017;53.552;9.910;2023-03-23T01:30:20;11.40;99.90
21712;DHT22;11017;53.552;9.910;2023-03-23T01:33:03;11.50;99.90
21712;DHT22;11017;53.552;9.910;2023-03-23T01:36:06;11.50;99.90
21712;DHT22;11017;53.552;9.910;2023-03-23T01:38:50;11.50;99.90
21712;DHT22;11017;53.552;9.910;2023-03-23T01:41:28;11.50;99.90
21712;DHT22;11017;53.552;9.910;2023-03-23T01:47:39;11.50;99.90
21712;DHT22;11017;53.552;9.910;2023-03-23T01:50:49;11.40;99.90
21712;DHT22;11017;53.552;9.910;2023-03-23T01:53:44;11.50;99.90
21712;DHT22;11017;53.552;9.910;2023-03-23T01:56:48;11.40;99.90
21712;DHT22;11017;53.552;9.910;2023-03-23T02:00:08;11.40;99.90
21712;DHT22;11017;53.552;9.910;2023-03-23T02:03:10;11.50;99.90
21712;DHT22;11017;53.552;9.910;2023-03-23T02:05:58;11.40;99.90
21712;DHT22;11017;53.552;9.910;2023-03-23T02:09:06;11.40;99.90
21712;DHT22;11017;53.552;9.910;2023-03-23T02:11:58;11.40;99.90
21712;DHT22;11017;53.552;9.910;2023-03-23T02:15:03;11.50;99.90
21712;DHT22;11017;53.552;9.910;2023-03-23T02:31:03;11.40;99.90
21712;DHT22;11017;53.552;9.910;2023-03-23T02:37:39;11.50;99.90
21712;DHT22;11017;53.552;9.910;2023-03-23T02:40:26;11.50;99.90
21712;DHT22;11017;53.552;9.910;2023-03-23T02:43:17;11.40;99.90
21712;DHT22;11017;53.552;9.910;2023-03-23T02:46:21;11.50;99.90
21712;DHT22;11017;53.552;9.910;2023-03-23T02:49:44;11.50;99.90
21712;DHT22;11017;53.552;9.910;2023-03-23T02:56:06;11.50;99.90
21712;DHT22;11017;53.552;9.910;2023-03-23T03:02:24;11.60;99.90
21712;DHT22;11017;53.552;9.910;2023-03-23T03:05:52;11.60;99.90
21712;DHT22;11017;53.552;9.910;2023-03-23T03:08:44;11.60;99.90
21712;DHT22;11017;53.552;9.910;2023-03-23T03:11:56;11.70;99.90
21712;DHT22;11017;53.552;9.910;2023-03-23T03:18:20;11.70;99.90
21712;DHT22;11017;53.552;9.910;2023-03-23T03:21:09;11.60;99.90
21712;DHT22;11017;53.552;9.910;2023-03-23T03:24:28;11.70;99.90
21712;DHT22;11017;53.552;9.910;2023-03-23T03:27:20;11.70;99.90
21712;DHT22;11017;53.552;9.910;2023-03-23T03:30:44;11.60;99.90
21712;DHT22;11017;53.552;9.910;2023-03-23T03:33:55;11.80;99.90
21712;DHT22;11017;53.552;9.910;2023-03-23T03:36:38;11.90;99.90
21712;DHT22;11017;53.552;9.910;2023-03-23T03:39:33;11.90;99.90
21712;DHT22;11017;53.552;9.910;2023-03-23T03:46:24;11.80;99.90
21712;DHT22;11017;53.552;9.910;2023-03-23T03:49:45;11.80;99.90
21712;DHT22;11017;53.552;9.910;2023-03-23T03:53:01;11.80;99.90
21712;DHT22;11017;53.552;9.910;2023-03-23T03:56:19;11.80;99.90
21712;DHT22;11017;53.552;9.910;2023-03-23T03:59:11;11.80;99.90
21712;DHT22;11017;53.552;9.910;2023-03-23T04:02:23;11.80;99.90
21712;DHT22;11017;53.552;9.910;2023-03-23T04:05:07;11.90;99.90
21712;DHT22;11017;53.552;9.910;2023-03-23T04:08:00;11.90;99.90
21712;DHT22;11017;53.552;9.910;2023-03-23T04:11:08;11.90;99.90
21712;DHT22;11017;53.552;9.910;2023-03-23T04:13:44;11.90;99.90
21712;DHT22;11017;53.552;9.910;2023-03-23T04:16:55;11.90;99.90
21712;DHT22;11017;53.552;9.910;2023-03-23T04:19:48;11.90;99.90
21712;DHT22;11017;53.552;9.910;2023-03-23T04:23:19;12.00;99.90
21712;DHT22;11017;53.552;9.910;2023-03-23T04:26:17;12.00;99.90
21712;DHT22;11017;53.552;9.910;2023-03-23T04:28:59;11.90;99.90
21712;DHT22;11017;53.552;9.910;2023-03-23T04:31:56;12.00;99.90
21712;DHT22;11017;53.552;9.910;2023-03-23T04:37:48;11.70;99.90
21712;DHT22;11017;53.552;9.910;2023-03-23T04:40:47;11.80;99.90
21712;DHT22;11017;53.552;9.910;2023-03-23T04:44:33;11.80;99.90
21712;DHT22;11017;53.552;9.910;2023-03-23T04:47:52;11.90;99.90
21712;DHT22;11017;53.552;9.910;2023-03-23T04:53:52;11.90;99.90
21712;DHT22;11017;53.552;9.910;2023-03-23T04:56:59;12.00;99.90
21712;DHT22;11017;53.552;9.910;2023-03-23T04:59:49;12.00;99.90
21712;DHT22;11017;53.552;9.910;2023-03-23T05:02:21;12.00;99.90
21712;DHT22;11017;53.552;9.910;2023-03-23T05:05:24;12.00;99.90
21712;DHT22;11017;53.552;9.910;2023-03-23T05:08:25;12.00;99.90
21712;DHT22;11017;53.552;9.910;2023-03-23T05:11:25;12.10;99.90
21712;DHT22;11017;53.552;9.910;2023-03-23T05:14:09;12.00;99.90
21712;DHT22;11017;53.552;9.910;2023-03-23T05:16:58;12.00;99.90
21712;DHT22;11017;53.552;9.910;2023-03-23T05:26:36;12.00;99.90
21712;DHT22;11017;53.552;9.910;2023-03-23T05:29:21;12.10;99.90
21712;DHT22;11017;53.552;9.910;2023-03-23T05:32:22;12.10;99.90
21712;DHT22;11017;53.552;9.910;2023-03-23T05:35:12;12.00;99.90
21712;DHT22;11017;53.552;9.910;2023-03-23T05:38:04;11.90;99.90
21712;DHT22;11017;53.552;9.910;2023-03-23T05:50:22;11.90;99.90
21712;DHT22;11017;53.552;9.910;2023-03-23T05:53:31;11.90;99.90
21712;DHT22;11017;53.552;9.910;2023-03-23T05:56:15;11.90;99.90
21712;DHT22;11017;53.552;9.910;2023-03-23T05:59:13;11.90;99.90
21712;DHT22;11017;53.552;9.910;2023-03-23T06:04:34;11.90;99.90
21712;DHT22;11017;53.552;9.910;2023-03-23T06:07:04;12.00;99.90
21712;DHT22;11017;53.552;9.910;2023-03-23T06:09:31;11.90;99.90
21712;DHT22;11017;53.552;9.910;2023-03-23T06:11:58;11.90;99.90
21712;DHT22;11017;53.552;9.910;2023-03-23T06:14:25;11.90;99.90
21712;DHT22;11017;53.552;9.910;2023-03-23T06:16:52;11.90;99.90
21712;DHT22;11017;53.552;9.910;2023-03-23T06:19:19;11.80;99.90
21712;DHT22;11017;53.552;9.910;2023-03-23T06:21:48;11.80;99.90
21712;DHT22;11017;53.552;9.910;2023-03-23T06:24:16;11.80;99.90
21712;DHT22;11017;53.552;9.910;2023-03-23T06:26:43;11.80;99.90
21712;DHT22;11017;53.552;9.910;2023-03-23T06:29:10;11.80;99.90
21712;DHT22;11017;53.552;9.910;2023-03-23T06:34:06;11.90;99.90
21712;DHT22;11017;53.552;9.910;2023-03-23T06:36:34;12.00;99.90
21712;DHT22;11017;53.552;9.910;2023-03-23T06:39:04;12.00;99.90
21712;DHT22;11017;53.552;9.910;2023-03-23T06:41:33;12.00;99.90
21712;DHT22;11017;53.552;9.910;2023-03-23T06:44:00;12.00;99.90
21712;DHT22;11017;53.552;9.910;2023-03-23T06:46:27;12.10;99.90
21712;DHT22;11017;53.552;9.910;2023-03-23T06:48:55;12.20;99.90
21712;DHT22;11017;53.552;9.910;2023-03-23T06:51:22;12.20;99.90
21712;DHT22;11017;53.552;9.910;2023-03-23T06:53:49;12.20;99.90
21712;DHT22;11017;53.552;9.910;2023-03-23T06:56:16;12.30;99.90
21712;DHT22;11017;53.552;9.910;2023-03-23T06:58:44;12.30;99.90
21712;DHT22;11017;53.552;9.910;2023-03-23T07:01:12;12.50;99.90
21712;DHT22;11017;53.552;9.910;2023-03-23T07:03:40;12.60;99.90
21712;DHT22;11017;53.552;9.910;2023-03-23T07:06:08;12.60;99.90
21712;DHT22;11017;53.552;9.910;2023-03-23T07:08:35;12.70;99.90
21712;DHT22;11017;53.552;9.910;2023-03-23T07:11:02;12.80;99.90
21712;DHT22;11017;53.552;9.910;2023-03-23T07:13:29;13.00;99.90
21712;DHT22;11017;53.552;9.910;2023-03-23T07:15:58;13.00;99.90
21712;DHT22;11017;53.552;9.910;2023-03-23T07:18:26;13.00;99.90
21712;DHT22;11017;53.552;9.910;2023-03-23T07:20:53;13.10;99.90
21712;DHT22;11017;53.552;9.910;2023-03-23T07:23:20;13.10;99.90
21712;DHT22;11017;53.552;9.910;2023-03-23T07:25:47;13.10;99.90
21712;DHT22;11017;53.552;9.910;2023-03-23T07:28:14;13.00;99.90
21712;DHT22;11017;53.552;9.910;2023-03-23T07:30:42;12.90;99.90
21712;DHT22;11017;53.552;9.910;2023-03-23T07:33:10;13.10;99.90
21712;DHT22;11017;53.552;9.910;2023-03-23T07:35:38;13.30;99.90
21712;DHT22;11017;53.552;9.910;2023-03-23T07:38:06;13.50;99.90
21712;DHT22;11017;53.552;9.910;2023-03-23T07:40:33;13.60;99.90
21712;DHT22;11017;53.552;9.910;2023-03-23T07:43:01;13.70;99.90
21712;DHT22;11017;53.552;9.910;2023-03-23T07:45:28;13.60;99.90
21712;DHT22;11017;53.552;9.910;2023-03-23T07:47:56;13.40;99.90
21712;DHT22;11017;53.552;9.910;2023-03-23T07:50:24;13.30;99.90
21712;DHT22;11017;53.552;9.910;2023-03-23T07:52:53;13.10;99.90
21712;DHT22;11017;53.552;9.910;2023-03-23T07:55:21;13.00;99.90
21712;DHT22;11017;53.552;9.910;2023-03-23T07:57:51;12.90;99.90
21712;DHT22;11017;53.552;9.910;2023-03-23T08:00:20;13.00;99.90
21712;DHT22;11017;53.552;9.910;2023-03-23T08:02:51;13.10;99.90
21712;DHT22;11017;53.552;9.910;2023-03-23T08:05:19;13.10;99.90
21712;DHT22;11017;53.552;9.910;2023-03-23T08:07:49;12.90;99.90
21712;DHT22;11017;53.552;9.910;2023-03-23T08:10:17;12.90;99.90
21712;DHT22;11017;53.552;9.910;2023-03-23T08:12:45;12.80;99.90
21712;DHT22;11017;53.552;9.910;2023-03-23T08:15:13;12.80;99.90
21712;DHT22;11017;53.552;9.910;2023-03-23T08:17:41;12.80;99.90
21712;DHT22;11017;53.552;9.910;2023-03-23T08:20:09;12.90;99.90
21712;DHT22;11017;53.552;9.910;2023-03-23T08:22:39;12.80;99.90
21712;DHT22;11017;53.552;9.910;2023-03-23T08:25:10;12.70;99.90
21712;DHT22;11017;53.552;9.910;2023-03-23T08:27:37;12.40;99.90
21712;DHT22;11017;53.552;9.910;2023-03-23T08:30:10;12.20;99.90
21712;DHT22;11017;53.552;9.910;2023-03-23T08:32:37;12.30;99.90
21712;DHT22;11017;53.552;9.910;2023-03-23T08:35:05;12.10;99.90
21712;DHT22;11017;53.552;9.910;2023-03-23T08:37:33;12.10;99.90
21712;DHT22;11017;53.552;9.910;2023-03-23T08:40:00;11.90;99.90
21712;DHT22;11017;53.552;9.910;2023-03-23T08:42:34;11.80;99.90
21712;DHT22;11017;53.552;9.910;2023-03-23T08:45:01;11.90;99.90
21712;DHT22;11017;53.552;9.910;2023-03-23T08:47:29;12.10;99.90
21712;DHT22;11017;53.552;9.910;2023-03-23T08:49:56;12.40;99.90
21712;DHT22;11017;53.552;9.910;2023-03-23T08:52:23;12.50;99.90
21712;DHT22;11017;53.552;9.910;2023-03-23T08:54:50;12.70;99.90
21712;DHT22;11017;53.552;9.910;2023-03-23T08:57:17;12.80;99.90
21712;DHT22;11017;53.552;9.910;2023-03-23T08:59:46;12.90;99.90
21712;DHT22;11017;53.552;9.910;2023-03-23T09:02:13;13.00;99.90
21712;DHT22;11017;53.552;9.910;2023-03-23T09:04:40;12.80;99.90
21712;DHT22;11017;53.552;9.910;2023-03-23T09:07:08;12.80;99.90
21712;DHT22;11017;53.552;9.910;2023-03-23T09:09:36;13.10;99.90
21712;DHT22;11017;53.552;9.910;2023-03-23T09:12:05;13.50;99.90
21712;DHT22;11017;53.552;9.910;2023-03-23T09:14:31;13.70;99.90
21712;DHT22;11017;53.552;9.910;2023-03-23T09:17:00;13.40;99.90
21712;DHT22;11017;53.552;9.910;2023-03-23T09:19:28;13.20;99.90
21712;DHT22;11017;53.552;9.910;2023-03-23T09:21:55;13.20;99.90
21712;DHT22;11017;53.552;9.910;2023-03-23T09:24:22;13.20;99.90
21712;DHT22;11017;53.552;9.910;2023-03-23T09:26:49;13.10;99.90
21712;DHT22;11017;53.552;9.910;2023-03-23T09:29:16;13.20;99.90
21712;DHT22;11017;53.552;9.910;2023-03-23T09:31:44;13.20;99.90
21712;DHT22;11017;53.552;9.910;2023-03-23T09:34:13;13.20;99.90
21712;DHT22;11017;53.552;9.910;2023-03-23T09:36:40;13.40;99.90
21712;DHT22;11017;53.552;9.910;2023-03-23T09:39:08;13.30;99.90
21712;DHT22;11017;53.552;9.910;2023-03-23T09:41:46;13.30;99.90
21712;DHT22;11017;53.552;9.910;2023-03-23T09:44:21;13.70;99.90
21712;DHT22;11017;53.552;9.910;2023-03-23T09:46:55;13.90;99.90
21712;DHT22;11017;53.552;9.910;2023-03-23T09:49:28;14.00;99.90
21712;DHT22;11017;53.552;9.910;2023-03-23T09:52:03;14.00;99.90
21712;DHT22;11017;53.552;9.910;2023-03-23T09:54:34;14.10;99.90
21712;DHT22;11017;53.552;9.910;2023-03-23T09:57:03;14.40;99.90
21712;DHT22;11017;53.552;9.910;2023-03-23T09:59:34;15.00;99.90
21712;DHT22;11017;53.552;9.910;2023-03-23T10:02:11;15.60;99.90
21712;DHT22;11017;53.552;9.910;2023-03-23T10:04:43;15.80;99.90
21712;DHT22;11017;53.552;9.910;2023-03-23T10:07:12;15.40;99.90
21712;DHT22;11017;53.552;9.910;2023-03-23T10:09:41;15.50;99.90
21712;DHT22;11017;53.552;9.910;2023-03-23T10:12:20;14.90;99.90
21712;DHT22;11017;53.552;9.910;2023-03-23T10:14:59;14.90;99.90
21712;DHT22;11017;53.552;9.910;2023-03-23T10:17:29;15.90;99.90
21712;DHT22;11017;53.552;9.910;2023-03-23T10:20:09;16.30;99.90
21712;DHT22;11017;53.552;9.910;2023-03-23T10:22:55;17.00;99.90
21712;DHT22;11017;53.552;9.910;2023-03-23T10:25:28;17.60;99.90
21712;DHT22;11017;53.552;9.910;2023-03-23T10:28:01;17.50;99.90
21712;DHT22;11017;53.552;9.910;2023-03-23T10:30:31;16.50;99.90
21712;DHT22;11017;53.552;9.910;2023-03-23T10:33:03;16.20;99.90
21712;DHT22;11017;53.552;9.910;2023-03-23T10:35:37;16.30;99.90
21712;DHT22;11017;53.552;9.910;2023-03-23T10:38:10;16.20;99.90
21712;DHT22;11017;53.552;9.910;2023-03-23T10:40:45;15.60;99.90
21712;DHT22;11017;53.552;9.910;2023-03-23T10:43:15;15.40;99.90
21712;DHT22;11017;53.552;9.910;2023-03-23T10:45:49;15.30;99.90
21712;DHT22;11017;53.552;9.910;2023-03-23T10:48:23;15.10;99.90
21712;DHT22;11017;53.552;9.910;2023-03-23T10:50:56;15.00;99.90
21712;DHT22;11017;53.552;9.910;2023-03-23T10:53:27;14.90;99.90
21712;DHT22;11017;53.552;9.910;2023-03-23T10:55:57;15.00;99.90
21712;DHT22;11017;53.552;9.910;2023-03-23T10:58:26;14.80;99.90
21712;DHT22;11017;53.552;9.910;2023-03-23T11:00:55;14.70;99.90
21712;DHT22;11017;53.552;9.910;2023-03-23T11:03:27;14.80;99.90
21712;DHT22;11017;53.552;9.910;2023-03-23T11:05:59;15.10;99.90
21712;DHT22;11017;53.552;9.910;2023-03-23T11:08:30;15.40;99.90
21712;DHT22;11017;53.552;9.910;2023-03-23T11:11:09;15.40;99.90
21712;DHT22;11017;53.552;9.910;2023-03-23T11:13:41;15.20;99.90
21712;DHT22;11017;53.552;9.910;2023-03-23T11:16:10;15.50;99.90
21712;DHT22;11017;53.552;9.910;2023-03-23T11:18:39;15.30;99.90
21712;DHT22;11017;53.552;9.910;2023-03-23T11:21:12;15.40;99.90
21712;DHT22;11017;53.552;9.910;2023-03-23T11:23:41;15.40;99.90
21712;DHT22;11017;53.552;9.910;2023-03-23T11:26:13;15.40;99.90
21712;DHT22;11017;53.552;9.910;2023-03-23T11:28:44;15.20;99.90
21712;DHT22;11017;53.552;9.910;2023-03-23T11:31:12;14.60;99.90
21712;DHT22;11017;53.552;9.910;2023-03-23T11:33:47;14.60;99.90
21712;DHT22;11017;53.552;9.910;2023-03-23T11:36:16;14.90;99.90
21712;DHT22;11017;53.552;9.910;2023-03-23T11:38:43;15.40;99.90
21712;DHT22;11017;53.552;9.910;2023-03-23T11:41:12;15.40;99.90
21712;DHT22;11017;53.552;9.910;2023-03-23T11:43:41;15.20;99.90
21712;DHT22;11017;53.552;9.910;2023-03-23T11:46:16;15.00;99.90
21712;DHT22;11017;53.552;9.910;2023-03-23T11:48:49;15.40;99.90
21712;DHT22;11017;53.552;9.910;2023-03-23T11:51:24;15.90;99.90
21712;DHT22;11017;53.552;9.910;2023-03-23T11:53:59;16.20;99.90
21712;DHT22;11017;53.552;9.910;2023-03-23T11:56:30;15.80;99.90
21712;DHT22;11017;53.552;9.910;2023-03-23T11:58:58;15.20;99.90
21712;DHT22;11017;53.552;9.910;2023-03-23T12:01:36;14.80;99.90
21712;DHT22;11017;53.552;9.910;2023-03-23T12:04:39;14.70;99.90
21712;DHT22;11017;53.552;9.910;2023-03-23T12:07:35;14.50;99.90
21712;DHT22;11017;53.552;9.910;2023-03-23T12:10:17;14.40;99.90
21712;DHT22;11017;53.552;9.910;2023-03-23T12:12:50;14.20;99.90
21712;DHT22;11017;53.552;9.910;2023-03-23T12:15:24;14.10;99.90
21712;DHT22;11017;53.552;9.910;2023-03-23T12:17:58;14.40;99.90
21712;DHT22;11017;53.552;9.910;2023-03-23T12:20:36;14.40;99.90
21712;DHT22;11017;53.552;9.910;2023-03-23T12:23:21;14.40;99.90
21712;DHT22;11017;53.552;9.910;2023-03-23T12:26:12;14.00;99.90
21712;DHT22;11017;53.552;9.910;2023-03-23T12:29:15;14.00;99.90
21712;DHT22;11017;53.552;9.910;2023-03-23T12:31:53;14.20;99.90
21712;DHT22;11017;53.552;9.910;2023-03-23T12:34:28;14.30;99.90
21712;DHT22;11017;53.552;9.910;2023-03-23T12:37:07;14.20;99.90
21712;DHT22;11017;53.552;9.910;2023-03-23T12:40:07;14.00;99.90
21712;DHT22;11017;53.552;9.910;2023-03-23T12:42:46;14.20;99.90
21712;DHT22;11017;53.552;9.910;2023-03-23T12:45:22;14.30;99.90
21712;DHT22;11017;53.552;9.910;2023-03-23T12:47:55;15.10;99.90
21712;DHT22;11017;53.552;9.910;2023-03-23T12:50:27;15.20;99.90
21712;DHT22;11017;53.552;9.910;2023-03-23T12:52:59;15.50;99.90
21712;DHT22;11017;53.552;9.910;2023-03-23T12:55:36;15.20;99.90
21712;DHT22;11017;53.552;9.910;2023-03-23T12:58:09;14.90;99.90
21712;DHT22;11017;53.552;9.910;2023-03-23T13:00:55;15.00;99.90
21712;DHT22;11017;53.552;9.910;2023-03-23T13:03:27;17.00;99.90
21712;DHT22;11017;53.552;9.910;2023-03-23T13:06:06;18.90;99.90
21712;DHT22;11017;53.552;9.910;2023-03-23T13:08:37;18.70;99.90
21712;DHT22;11017;53.552;9.910;2023-03-23T13:11:12;19.70;99.90
21712;DHT22;11017;53.552;9.910;2023-03-23T13:13:45;19.60;99.90
21712;DHT22;11017;53.552;9.910;2023-03-23T13:16:20;18.50;99.90
21712;DHT22;11017;53.552;9.910;2023-03-23T13:18:56;17.70;99.90
21712;DHT22;11017;53.552;9.910;2023-03-23T13:21:29;17.30;99.90
21712;DHT22;11017;53.552;9.910;2023-03-23T13:24:00;17.70;99.90
21712;DHT22;11017;53.552;9.910;2023-03-23T13:26:30;17.20;99.90
21712;DHT22;11017;53.552;9.910;2023-03-23T13:28:59;16.80;99.90
21712;DHT22;11017;53.552;9.910;2023-03-23T13:31:29;16.60;99.90
21712;DHT22;11017;53.552;9.910;2023-03-23T13:34:01;17.30;99.90
21712;DHT22;11017;53.552;9.910;2023-03-23T13:36:33;17.90;99.90
21712;DHT22;11017;53.552;9.910;2023-03-23T13:39:02;17.80;99.90
21712;DHT22;11017;53.552;9.910;2023-03-23T13:41:34;17.80;99.90
21712;DHT22;11017;53.552;9.910;2023-03-23T13:44:18;17.40;99.90
21712;DHT22;11017;53.552;9.910;2023-03-23T13:46:56;17.30;99.90
21712;DHT22;11017;53.552;9.910;2023-03-23T13:49:24;16.60;99.90
21712;DHT22;11017;53.552;9.910;2023-03-23T13:52:00;16.00;99.90
21712;DHT22;11017;53.552;9.910;2023-03-23T13:54:31;15.80;99.90
21712;DHT22;11017;53.552;9.910;2023-03-23T13:57:34;15.60;99.90
21712;DHT22;11017;53.552;9.910;2023-03-23T14:00:12;15.30;99.90
21712;DHT22;11017;53.552;9.910;2023-03-23T14:02:41;15.00;99.90
21712;DHT22;11017;53.552;9.910;2023-03-23T14:05:11;14.80;99.90
21712;DHT22;11017;53.552;9.910;2023-03-23T14:07:56;14.30;99.90
21712;DHT22;11017;53.552;9.910;2023-03-23T14:10:30;13.50;99.90
21712;DHT22;11017;53.552;9.910;2023-03-23T14:13:00;12.90;99.90
21712;DHT22;11017;53.552;9.910;2023-03-23T14:15:29;12.10;99.90
21712;DHT22;11017;53.552;9.910;2023-03-23T14:17:57;12.00;99.90
21712;DHT22;11017;53.552;9.910;2023-03-23T14:20:31;11.90;99.90
21712;DHT22;11017;53.552;9.910;2023-03-23T14:22:59;11.90;99.90
21712;DHT22;11017;53.552;9.910;2023-03-23T14:25:29;12.00;99.90
21712;DHT22;11017;53.552;9.910;2023-03-23T14:27:56;12.40;99.90
21712;DHT22;11017;53.552;9.910;2023-03-23T14:30:26;14.10;99.90
21712;DHT22;11017;53.552;9.910;2023-03-23T14:33:02;15.60;99.90
21712;DHT22;11017;53.552;9.910;2023-03-23T14:35:33;16.50;99.90
21712;DHT22;11017;53.552;9.910;2023-03-23T14:38:01;17.70;99.90
21712;DHT22;11017;53.552;9.910;2023-03-23T14:40:29;18.10;99.90
21712;DHT22;11017;53.552;9.910;2023-03-23T14:42:57;17.10;99.90
21712;DHT22;11017;53.552;9.910;2023-03-23T14:45:27;16.60;99.90
21712;DHT22;11017;53.552;9.910;2023-03-23T14:47:56;17.40;99.90
21712;DHT22;11017;53.552;9.910;2023-03-23T14:50:27;17.80;99.90
21712;DHT22;11017;53.552;9.910;2023-03-23T14:52:58;17.60;99.90
21712;DHT22;11017;53.552;9.910;2023-03-23T14:55:26;18.10;99.90
21712;DHT22;11017;53.552;9.910;2023-03-23T14:58:05;18.30;99.90
21712;DHT22;11017;53.552;9.910;2023-03-23T15:00:38;17.30;99.90
21712;DHT22;11017;53.552;9.910;2023-03-23T15:03:09;16.90;99.90
21712;DHT22;11017;53.552;9.910;2023-03-23T15:05:41;16.00;99.90
21712;DHT22;11017;53.552;9.910;2023-03-23T15:08:13;15.50;99.90
21712;DHT22;11017;53.552;9.910;2023-03-23T15:10:41;15.40;99.90
21712;DHT22;11017;53.552;9.910;2023-03-23T15:13:11;15.40;99.90
21712;DHT22;11017;53.552;9.910;2023-03-23T15:15:40;14.90;99.90
21712;DHT22;11017;53.552;9.910;2023-03-23T15:18:29;14.70;99.90
21712;DHT22;11017;53.552;9.910;2023-03-23T15:20:57;14.30;99.90
21712;DHT22;11017;53.552;9.910;2023-03-23T15:23:27;14.50;99.90
21712;DHT22;11017;53.552;9.910;2023-03-23T15:25:56;14.10;99.90
21712;DHT22;11017;53.552;9.910;2023-03-23T15:28:29;14.40;99.90
21712;DHT22;11017;53.552;9.910;2023-03-23T15:31:01;14.60;99.90
21712;DHT22;11017;53.552;9.910;2023-03-23T15:33:34;15.30;99.90
21712;DHT22;11017;53.552;9.910;2023-03-23T15:36:07;16.10;99.90
21712;DHT22;11017;53.552;9.910;2023-03-23T15:38:36;17.60;99.90
21712;DHT22;11017;53.552;9.910;2023-03-23T15:41:05;19.40;99.90
21712;DHT22;11017;53.552;9.910;2023-03-23T15:43:33;19.50;99.90
21712;DHT22;11017;53.552;9.910;2023-03-23T15:46:04;19.00;99.90
21712;DHT22;11017;53.552;9.910;2023-03-23T15:48:33;18.90;99.90
21712;DHT22;11017;53.552;9.910;2023-03-23T15:51:03;18.60;99.90
21712;DHT22;11017;53.552;9.910;2023-03-23T15:53:32;17.50;99.90
21712;DHT22;11017;53.552;9.910;2023-03-23T15:56:00;16.30;99.90
21712;DHT22;11017;53.552;9.910;2023-03-23T15:58:31;15.40;99.90
21712;DHT22;11017;53.552;9.910;2023-03-23T16:01:00;15.10;99.90
21712;DHT22;11017;53.552;9.910;2023-03-23T16:03:37;14.90;99.90
21712;DHT22;11017;53.552;9.910;2023-03-23T16:06:05;14.70;99.90
21712;DHT22;11017;53.552;9.910;2023-03-23T16:08:32;14.60;99.90
21712;DHT22;11017;53.552;9.910;2023-03-23T16:11:05;14.30;99.90
21712;DHT22;11017;53.552;9.910;2023-03-23T16:13:32;14.10;99.90
21712;DHT22;11017;53.552;9.910;2023-03-23T16:15:59;14.00;99.90
21712;DHT22;11017;53.552;9.910;2023-03-23T16:18:27;14.10;99.90
21712;DHT22;11017;53.552;9.910;2023-03-23T16:20:56;14.10;99.90
21712;DHT22;11017;53.552;9.910;2023-03-23T16:23:23;14.50;99.90
21712;DHT22;11017;53.552;9.910;2023-03-23T16:25:50;15.10;99.90
21712;DHT22;11017;53.552;9.910;2023-03-23T16:28:17;16.50;99.90
21712;DHT22;11017;53.552;9.910;2023-03-23T16:30:46;17.30;99.90
21712;DHT22;11017;53.552;9.910;2023-03-23T16:33:13;17.30;99.90
21712;DHT22;11017;53.552;9.910;2023-03-23T16:35:40;16.50;99.90
21712;DHT22;11017;53.552;9.910;2023-03-23T16:38:12;15.80;99.90
21712;DHT22;11017;53.552;9.910;2023-03-23T16:40:41;15.40;99.90
21712;DHT22;11017;53.552;9.910;2023-03-23T16:43:08;14.90;99.90
21712;DHT22;11017;53.552;9.910;2023-03-23T16:45:35;14.80;99.90
21712;DHT22;11017;53.552;9.910;2023-03-23T16:48:02;14.60;99.90
21712;DHT22;11017;53.552;9.910;2023-03-23T16:50:30;14.70;99.90
21712;DHT22;11017;53.552;9.910;2023-03-23T16:52:57;14.40;99.90
21712;DHT22;11017;53.552;9.910;2023-03-23T16:55:26;14.40;99.90
21712;DHT22;11017;53.552;9.910;2023-03-23T16:57:53;14.20;99.90
21712;DHT22;11017;53.552;9.910;2023-03-23T17:00:20;14.10;99.90
21712;DHT22;11017;53.552;9.910;2023-03-23T17:02:49;14.10;99.90
21712;DHT22;11017;53.552;9.910;2023-03-23T17:05:17;14.10;99.90
21712;DHT22;11017;53.552;9.910;2023-03-23T17:07:45;14.10;99.90
21712;DHT22;11017;53.552;9.910;2023-03-23T17:10:13;14.20;99.90
21712;DHT22;11017;53.552;9.910;2023-03-23T17:12:42;14.40;99.90
21712;DHT22;11017;53.552;9.910;2023-03-23T17:15:10;14.30;99.90
21712;DHT22;11017;53.552;9.910;2023-03-23T17:17:37;14.10;99.90
21712;DHT22;11017;53.552;9.910;2023-03-23T17:20:05;14.00;99.90
21712;DHT22;11017;53.552;9.910;2023-03-23T17:22:34;13.90;99.90
21712;DHT22;11017;53.552;9.910;2023-03-23T17:25:01;13.80;99.90
21712;DHT22;11017;53.552;9.910;2023-03-23T17:27:28;13.80;99.90
21712;DHT22;11017;53.552;9.910;2023-03-23T17:29:57;13.90;99.90
21712;DHT22;11017;53.552;9.910;2023-03-23T17:32:24;14.00;99.90
21712;DHT22;11017;53.552;9.910;2023-03-23T17:34:50;14.00;99.90
21712;DHT22;11017;53.552;9.910;2023-03-23T17:37:19;13.80;99.90
21712;DHT22;11017;53.552;9.910;2023-03-23T17:39:46;13.80;99.90
21712;DHT22;11017;53.552;9.910;2023-03-23T17:42:13;13.80;99.90
21712;DHT22;11017;53.552;9.910;2023-03-23T17:44:40;13.60;99.90
21712;DHT22;11017;53.552;9.910;2023-03-23T17:47:09;13.40;99.90
21712;DHT22;11017;53.552;9.910;2023-03-23T17:49:36;13.10;99.90
21712;DHT22;11017;53.552;9.910;2023-03-23T17:52:03;13.00;99.90
21712;DHT22;11017;53.552;9.910;2023-03-23T17:54:30;12.90;99.90
21712;DHT22;11017;53.552;9.910;2023-03-23T17:56:57;13.00;99.90